sensor_id;sensor_type;location;lat;lon;timestamp;pressure;altitude;pressure_sealevel;temperature;humidity
47883;BME280;37739;50.350;7.578;2024-01-07T00:01:57;99469.94;;;2.48;100.00
47883;BME280;37739;50.350;7.578;2024-01-07T00:04:25;99471.09;;;2.53;100.00
47883;BME280;37739;50.350;7.578;2024-01-07T00:06:50;99476.63;;;2.48;100.00
47883;BME280;37739;50.350;7.578;2024-01-07T00:09:16;99479.00;;;2.45;100.00
47883;BME280;37739;50.350;7.578;2024-01-07T00:11:44;99482.50;;;2.47;100.00
47883;BME280;37739;50.350;7.578;2024-01-07T00:14:11;99480.94;;;2.49;100.00
47883;BME280;37739;50.350;7.578;2024-01-07T00:16:40;99486.09;;;2.50;100.00
47883;BME280;37739;50.350;7.578;2024-01-07T00:19:11;99484.63;;;2.54;100.00
47883;BME280;37739;50.350;7.578;2024-01-07T00:21:36;99488.53;;;2.49;100.00
47883;BME280;37739;50.350;7.578;2024-01-07T00:24:01;99494.84;;;2.55;100.00
47883;BME280;37739;50.350;7.578;2024-01-07T00:26:29;99496.41;;;2.53;100.00
47883;BME280;37739;50.350;7.578;2024-01-07T00:28:56;99489.03;;;2.57;100.00
47883;BME280;37739;50.350;7.578;2024-01-07T00:31:24;99499.75;;;2.66;100.00
47883;BME280;37739;50.350;7.578;2024-01-07T00:33:49;99500.41;;;2.63;100.00
47883;BME280;37739;50.350;7.578;2024-01-07T00:36:14;99502.94;;;2.63;100.00
47883;BME280;37739;50.350;7.578;2024-01-07T00:38:42;99506.53;;;2.67;100.00
47883;BME280;37739;50.350;7.578;2024-01-07T00:41:10;99502.34;;;2.67;100.00
47883;BME280;37739;50.350;7.578;2024-01-07T00:43:36;99499.53;;;2.63;100.00
47883;BME280;37739;50.350;7.578;2024-01-07T00:46:01;99501.69;;;2.57;100.00
47883;BME280;37739;50.350;7.578;2024-01-07T00:48:29;99502.16;;;2.51;100.00
47883;BME280;37739;50.350;7.578;2024-01-07T00:50:56;99509.44;;;2.46;100.00
47883;BME280;37739;50.350;7.578;2024-01-07T00:53:22;99507.59;;;2.44;100.00
47883;BME280;37739;50.350;7.578;2024-01-07T00:55:52;99508.19;;;2.40;100.00
47883;BME280;37739;50.350;7.578;2024-01-07T00:58:22;99507.31;;;2.39;100.00
47883;BME280;37739;50.350;7.578;2024-01-07T01:00:47;99508.69;;;2.47;100.00
47883;BME280;37739;50.350;7.578;2024-01-07T01:03:18;99503.22;;;2.41;100.00
47883;BME280;37739;50.350;7.578;2024-01-07T01:05:46;99511.31;;;2.49;100.00
47883;BME280;37739;50.350;7.578;2024-01-07T01:08:16;99508.91;;;2.50;100.00
47883;BME280;37739;50.350;7.578;2024-01-07T01:10:41;99517.84;;;2.59;100.00
47883;BME280;37739;50.350;7.578;2024-01-07T01:13:06;99514.34;;;2.57;100.00
47883;BME280;37739;50.350;7.578;2024-01-07T01:15:34;99519.69;;;2.48;100.00
47883;BME280;37739;50.350;7.578;2024-01-07T01:18:02;99519.97;;;2.39;100.00
47883;BME280;37739;50.350;7.578;2024-01-07T01:20:27;99531.34;;;2.32;100.00
47883;BME280;37739;50.350;7.578;2024-01-07T01:22:55;99535.34;;;2.42;100.00
47883;BME280;37739;50.350;7.578;2024-01-07T01:25:22;99533.41;;;2.38;100.00
47883;BME280;37739;50.350;7.578;2024-01-07T01:27:48;99534.38;;;2.40;100.00
47883;BME280;37739;50.350;7.578;2024-01-07T01:30:13;99540.34;;;2.41;100.00
47883;BME280;37739;50.350;7.578;2024-01-07T01:32:41;99542.38;;;2.46;100.00
47883;BME280;37739;50.350;7.578;2024-01-07T01:35:07;99541.22;;;2.41;100.00
47883;BME280;37739;50.350;7.578;2024-01-07T01:37:35;99544.72;;;2.43;100.00
47883;BME280;37739;50.350;7.578;2024-01-07T01:40:00;99545.19;;;2.38;100.00
47883;BME280;37739;50.350;7.578;2024-01-07T01:42:28;99539.56;;;2.42;100.00
47883;BME280;37739;50.350;7.578;2024-01-07T01:44:53;99549.28;;;2.35;100.00
47883;BME280;37739;50.350;7.578;2024-01-07T01:47:22;99551.22;;;2.40;100.00
47883;BME280;37739;50.350;7.578;2024-01-07T01:49:47;99548.13;;;2.44;100.00
47883;BME280;37739;50.350;7.578;2024-01-07T01:52:16;99550.25;;;2.38;100.00
47883;BME280;37739;50.350;7.578;2024-01-07T01:54:44;99551.44;;;2.43;100.00
47883;BME280;37739;50.350;7.578;2024-01-07T01:57:15;99550.75;;;2.45;100.00
47883;BME280;37739;50.350;7.578;2024-01-07T01:59:42;99559.69;;;2.40;100.00
47883;BME280;37739;50.350;7.578;2024-01-07T02:02:10;99556.78;;;2.47;100.00
47883;BME280;37739;50.350;7.578;2024-01-07T02:04:35;99553.00;;;2.41;100.00
47883;BME280;37739;50.350;7.578;2024-01-07T02:07:01;99552.72;;;2.49;100.00
47883;BME280;37739;50.350;7.578;2024-01-07T02:09:29;99560.03;;;2.58;100.00
47883;BME280;37739;50.350;7.578;2024-01-07T02:12:06;99563.63;;;2.48;100.00
47883;BME280;37739;50.350;7.578;2024-01-07T02:14:37;99561.97;;;2.49;100.00
47883;BME280;37739;50.350;7.578;2024-01-07T02:17:02;99559.81;;;2.55;100.00
47883;BME280;37739;50.350;7.578;2024-01-07T02:19:30;99563.63;;;2.48;100.00
47883;BME280;37739;50.350;7.578;2024-01-07T02:21:58;99556.50;;;2.43;100.00
47883;BME280;37739;50.350;7.578;2024-01-07T02:24:23;99560.78;;;2.44;100.00
47883;BME280;37739;50.350;7.578;2024-01-07T02:26:49;99568.44;;;2.32;100.00
47883;BME280;37739;50.350;7.578;2024-01-07T02:29:14;99564.00;;;2.41;100.00
47883;BME280;37739;50.350;7.578;2024-01-07T02:31:39;99568.28;;;2.42;100.00
47883;BME280;37739;50.350;7.578;2024-01-07T02:34:05;99565.34;;;2.36;100.00
47883;BME280;37739;50.350;7.578;2024-01-07T02:36:30;99561.25;;;2.38;100.00
47883;BME280;37739;50.350;7.578;2024-01-07T02:38:57;99558.25;;;2.44;100.00
47883;BME280;37739;50.350;7.578;2024-01-07T02:41:25;99570.63;;;2.39;100.00
47883;BME280;37739;50.350;7.578;2024-01-07T02:43:53;99566.22;;;2.50;100.00
47883;BME280;37739;50.350;7.578;2024-01-07T02:46:24;99565.88;;;2.57;100.00
47883;BME280;37739;50.350;7.578;2024-01-07T02:48:49;99565.00;;;2.57;100.00
47883;BME280;37739;50.350;7.578;2024-01-07T02:51:14;99559.44;;;2.62;100.00
47883;BME280;37739;50.350;7.578;2024-01-07T02:53:44;99560.50;;;2.52;100.00
47883;BME280;37739;50.350;7.578;2024-01-07T02:56:10;99563.03;;;2.52;100.00
47883;BME280;37739;50.350;7.578;2024-01-07T02:58:37;99567.13;;;2.50;100.00
47883;BME280;37739;50.350;7.578;2024-01-07T03:01:05;99564.78;;;2.53;100.00
47883;BME280;37739;50.350;7.578;2024-01-07T03:03:33;99568.41;;;2.57;100.00
47883;BME280;37739;50.350;7.578;2024-01-07T03:05:58;99566.06;;;2.60;100.00
47883;BME280;37739;50.350;7.578;2024-01-07T03:08:25;99567.16;;;2.64;100.00
47883;BME280;37739;50.350;7.578;2024-01-07T03:10:53;99565.19;;;2.60;100.00
47883;BME280;37739;50.350;7.578;2024-01-07T03:13:21;99563.81;;;2.65;100.00
47883;BME280;37739;50.350;7.578;2024-01-07T03:15:49;99569.69;;;2.64;100.00
47883;BME280;37739;50.350;7.578;2024-01-07T03:18:14;99581.06;;;2.57;100.00
47883;BME280;37739;50.350;7.578;2024-01-07T03:20:39;99580.78;;;2.52;100.00
47883;BME280;37739;50.350;7.578;2024-01-07T03:23:07;99579.22;;;2.54;100.00
47883;BME280;37739;50.350;7.578;2024-01-07T03:25:35;99583.38;;;2.54;100.00
47883;BME280;37739;50.350;7.578;2024-01-07T03:28:00;99582.03;;;2.59;100.00
47883;BME280;37739;50.350;7.578;2024-01-07T03:30:25;99581.84;;;2.56;100.00
47883;BME280;37739;50.350;7.578;2024-01-07T03:32:51;99582.81;;;2.58;100.00
47883;BME280;37739;50.350;7.578;2024-01-07T03:35:18;99581.16;;;2.59;100.00
47883;BME280;37739;50.350;7.578;2024-01-07T03:37:44;99579.88;;;2.52;100.00
47883;BME280;37739;50.350;7.578;2024-01-07T03:40:12;99572.09;;;2.49;100.00
47883;BME280;37739;50.350;7.578;2024-01-07T03:42:37;99583.78;;;2.47;100.00
47883;BME280;37739;50.350;7.578;2024-01-07T03:45:05;99586.50;;;2.50;100.00
47883;BME280;37739;50.350;7.578;2024-01-07T03:47:30;99583.47;;;2.42;100.00
47883;BME280;37739;50.350;7.578;2024-01-07T03:49:56;99576.84;;;2.44;100.00
47883;BME280;37739;50.350;7.578;2024-01-07T03:52:24;99586.59;;;2.51;100.00
47883;BME280;37739;50.350;7.578;2024-01-07T03:54:52;99586.13;;;2.57;100.00
47883;BME280;37739;50.350;7.578;2024-01-07T03:57:17;99590.47;;;2.46;100.00
47883;BME280;37739;50.350;7.578;2024-01-07T03:59:43;99589.03;;;2.50;100.00
47883;BME280;37739;50.350;7.578;2024-01-07T04:02:08;99591.66;;;2.51;100.00
47883;BME280;37739;50.350;7.578;2024-01-07T04:04:39;99591.38;;;2.47;100.00
47883;BME280;37739;50.350;7.578;2024-01-07T04:07:09;99592.59;;;2.40;100.00
47883;BME280;37739;50.350;7.578;2024-01-07T04:09:36;99593.22;;;2.49;100.00
47883;BME280;37739;50.350;7.578;2024-01-07T04:12:04;99595.84;;;2.51;100.00
47883;BME280;37739;50.350;7.578;2024-01-07T04:14:30;99600.31;;;2.42;100.00
47883;BME280;37739;50.350;7.578;2024-01-07T04:16:58;99608.28;;;2.34;100.00
47883;BME280;37739;50.350;7.578;2024-01-07T04:19:24;99601.28;;;2.44;100.00
47883;BME280;37739;50.350;7.578;2024-01-07T04:21:49;99606.47;;;2.45;100.00
47883;BME280;37739;50.350;7.578;2024-01-07T04:24:16;99611.06;;;2.51;100.00
47883;BME280;37739;50.350;7.578;2024-01-07T04:26:46;99610.72;;;2.46;100.00
47883;BME280;37739;50.350;7.578;2024-01-07T04:29:12;99608.19;;;2.46;100.00
47883;BME280;37739;50.350;7.578;2024-01-07T04:31:37;99616.22;;;2.52;100.00
47883;BME280;37739;50.350;7.578;2024-01-07T04:34:05;99613.78;;;2.54;100.00
47883;BME280;37739;50.350;7.578;2024-01-07T04:36:30;99612.25;;;2.56;100.00
47883;BME280;37739;50.350;7.578;2024-01-07T04:39:00;99617.78;;;2.50;100.00
47883;BME280;37739;50.350;7.578;2024-01-07T04:41:28;99620.50;;;2.53;100.00
47883;BME280;37739;50.350;7.578;2024-01-07T04:43:55;99623.22;;;2.43;100.00
47883;BME280;37739;50.350;7.578;2024-01-07T04:46:21;99618.53;;;2.49;100.00
47883;BME280;37739;50.350;7.578;2024-01-07T04:48:50;99628.66;;;2.49;100.00
47883;BME280;37739;50.350;7.578;2024-01-07T04:51:18;99631.28;;;2.38;100.00
47883;BME280;37739;50.350;7.578;2024-01-07T04:53:43;99633.53;;;2.46;100.00
47883;BME280;37739;50.350;7.578;2024-01-07T04:56:11;99630.59;;;2.40;100.00
47883;BME280;37739;50.350;7.578;2024-01-07T04:58:39;99633.44;;;2.45;100.00
47883;BME280;37739;50.350;7.578;2024-01-07T05:01:07;99635.75;;;2.42;100.00
47883;BME280;37739;50.350;7.578;2024-01-07T05:03:32;99638.19;;;2.40;100.00
47883;BME280;37739;50.350;7.578;2024-01-07T05:06:00;99640.59;;;2.39;100.00
47883;BME280;37739;50.350;7.578;2024-01-07T05:08:28;99642.78;;;2.46;100.00
47883;BME280;37739;50.350;7.578;2024-01-07T05:10:53;99646.50;;;2.51;100.00
47883;BME280;37739;50.350;7.578;2024-01-07T05:13:19;99649.22;;;2.41;100.00
47883;BME280;37739;50.350;7.578;2024-01-07T05:15:48;99647.09;;;2.47;100.00
47883;BME280;37739;50.350;7.578;2024-01-07T05:18:21;99660.78;;;2.37;100.00
47883;BME280;37739;50.350;7.578;2024-01-07T05:20:49;99658.53;;;2.42;100.00
47883;BME280;37739;50.350;7.578;2024-01-07T05:23:15;99664.69;;;2.45;100.00
47883;BME280;37739;50.350;7.578;2024-01-07T05:25:44;99666.75;;;2.51;100.00
47883;BME280;37739;50.350;7.578;2024-01-07T05:28:12;99678.91;;;2.43;100.00
47883;BME280;37739;50.350;7.578;2024-01-07T05:30:41;99673.63;;;2.40;100.00
47883;BME280;37739;50.350;7.578;2024-01-07T05:33:11;99683.63;;;2.25;100.00
47883;BME280;37739;50.350;7.578;2024-01-07T05:35:41;99670.44;;;2.18;100.00
47883;BME280;37739;50.350;7.578;2024-01-07T05:38:11;99679.56;;;2.15;100.00
47883;BME280;37739;50.350;7.578;2024-01-07T05:40:36;99675.69;;;2.21;100.00
47883;BME280;37739;50.350;7.578;2024-01-07T05:43:04;99675.69;;;2.21;100.00
47883;BME280;37739;50.350;7.578;2024-01-07T05:45:29;99682.88;;;2.14;100.00
47883;BME280;37739;50.350;7.578;2024-01-07T05:47:54;99683.13;;;2.31;100.00
47883;BME280;37739;50.350;7.578;2024-01-07T05:50:22;99691.97;;;2.24;100.00
47883;BME280;37739;50.350;7.578;2024-01-07T05:52:47;99690.59;;;2.16;100.00
47883;BME280;37739;50.350;7.578;2024-01-07T05:55:15;99685.16;;;2.23;100.00
47883;BME280;37739;50.350;7.578;2024-01-07T05:57:40;99685.78;;;2.32;100.00
47883;BME280;37739;50.350;7.578;2024-01-07T06:00:09;99690.19;;;2.35;100.00
47883;BME280;37739;50.350;7.578;2024-01-07T06:02:36;99693.25;;;2.31;100.00
47883;BME280;37739;50.350;7.578;2024-01-07T06:05:02;99706.59;;;2.28;100.00
47883;BME280;37739;50.350;7.578;2024-01-07T06:07:28;99704.94;;;2.29;100.00
47883;BME280;37739;50.350;7.578;2024-01-07T06:09:56;99702.09;;;2.24;100.00
47883;BME280;37739;50.350;7.578;2024-01-07T06:12:23;99711.94;;;2.20;100.00
47883;BME280;37739;50.350;7.578;2024-01-07T06:14:48;99705.50;;;2.25;100.00
47883;BME280;37739;50.350;7.578;2024-01-07T06:17:21;99709.69;;;2.24;100.00
47883;BME280;37739;50.350;7.578;2024-01-07T06:19:51;99708.25;;;2.28;100.00
47883;BME280;37739;50.350;7.578;2024-01-07T06:22:16;99715.97;;;2.29;100.00
47883;BME280;37739;50.350;7.578;2024-01-07T06:24:42;99723.63;;;2.31;100.00
47883;BME280;37739;50.350;7.578;2024-01-07T06:27:07;99727.63;;;2.27;100.00
47883;BME280;37739;50.350;7.578;2024-01-07T06:29:32;99725.44;;;2.20;100.00
47883;BME280;37739;50.350;7.578;2024-01-07T06:31:58;99729.72;;;2.21;100.00
47883;BME280;37739;50.350;7.578;2024-01-07T06:34:26;99725.63;;;2.23;100.00
47883;BME280;37739;50.350;7.578;2024-01-07T06:36:53;99732.25;;;2.21;100.00
47883;BME280;37739;50.350;7.578;2024-01-07T06:39:19;99739.50;;;2.28;100.00
47883;BME280;37739;50.350;7.578;2024-01-07T06:41:46;99745.53;;;2.30;100.00
47883;BME280;37739;50.350;7.578;2024-01-07T06:44:12;99743.81;;;2.29;100.00
47883;BME280;37739;50.350;7.578;2024-01-07T06:46:37;99750.72;;;2.32;100.00
47883;BME280;37739;50.350;7.578;2024-01-07T06:49:07;99753.38;;;2.33;100.00
47883;BME280;37739;50.350;7.578;2024-01-07T06:51:33;99752.50;;;2.21;100.00
47883;BME280;37739;50.350;7.578;2024-01-07T06:54:03;99753.03;;;2.41;100.00
47883;BME280;37739;50.350;7.578;2024-01-07T06:56:28;99760.84;;;2.32;100.00
47883;BME280;37739;50.350;7.578;2024-01-07T06:58:56;99761.41;;;2.28;100.00
47883;BME280;37739;50.350;7.578;2024-01-07T07:01:22;99765.91;;;2.32;100.00
47883;BME280;37739;50.350;7.578;2024-01-07T07:03:52;99764.06;;;2.29;100.00
47883;BME280;37739;50.350;7.578;2024-01-07T07:06:20;99762.81;;;2.36;100.00
47883;BME280;37739;50.350;7.578;2024-01-07T07:08:48;99768.28;;;2.42;100.00
47883;BME280;37739;50.350;7.578;2024-01-07T07:11:15;99772.78;;;2.46;100.00
47883;BME280;37739;50.350;7.578;2024-01-07T07:13:43;99776.97;;;2.46;100.00
47883;BME280;37739;50.350;7.578;2024-01-07T07:16:08;99782.63;;;2.42;100.00
47883;BME280;37739;50.350;7.578;2024-01-07T07:18:33;99783.41;;;2.29;100.00
47883;BME280;37739;50.350;7.578;2024-01-07T07:21:01;99785.53;;;2.23;100.00
47883;BME280;37739;50.350;7.578;2024-01-07T07:23:26;99786.28;;;2.33;100.00
47883;BME280;37739;50.350;7.578;2024-01-07T07:25:52;99795.72;;;2.36;100.00
47883;BME280;37739;50.350;7.578;2024-01-07T07:28:17;99791.47;;;2.35;100.00
47883;BME280;37739;50.350;7.578;2024-01-07T07:30:42;99788.38;;;2.27;100.00
47883;BME280;37739;50.350;7.578;2024-01-07T07:33:12;99798.41;;;2.26;100.00
47883;BME280;37739;50.350;7.578;2024-01-07T07:35:40;99808.72;;;2.29;100.00
47883;BME280;37739;50.350;7.578;2024-01-07T07:38:07;99808.53;;;2.26;100.00
47883;BME280;37739;50.350;7.578;2024-01-07T07:40:32;99811.72;;;2.23;100.00
47883;BME280;37739;50.350;7.578;2024-01-07T07:43:00;99814.78;;;2.19;100.00
47883;BME280;37739;50.350;7.578;2024-01-07T07:45:25;99820.31;;;2.13;100.00
47883;BME280;37739;50.350;7.578;2024-01-07T07:47:50;99824.47;;;2.25;100.00
47883;BME280;37739;50.350;7.578;2024-01-07T07:50:16;99825.34;;;2.37;100.00
47883;BME280;37739;50.350;7.578;2024-01-07T07:52:44;99829.44;;;2.35;100.00
47883;BME280;37739;50.350;7.578;2024-01-07T07:55:10;99823.91;;;2.29;100.00
47883;BME280;37739;50.350;7.578;2024-01-07T07:57:35;99839.22;;;2.30;100.00
47883;BME280;37739;50.350;7.578;2024-01-07T08:00:09;99836.13;;;2.34;100.00
47883;BME280;37739;50.350;7.578;2024-01-07T08:02:38;99842.97;;;2.35;100.00
47883;BME280;37739;50.350;7.578;2024-01-07T08:05:06;99845.94;;;2.30;100.00
47883;BME280;37739;50.350;7.578;2024-01-07T08:07:32;99840.19;;;2.32;100.00
47883;BME280;37739;50.350;7.578;2024-01-07T08:09:57;99846.69;;;2.29;100.00
47883;BME280;37739;50.350;7.578;2024-01-07T08:12:23;99850.44;;;2.34;100.00
47883;BME280;37739;50.350;7.578;2024-01-07T08:14:50;99857.28;;;2.35;100.00
47883;BME280;37739;50.350;7.578;2024-01-07T08:17:18;99862.78;;;2.29;100.00
47883;BME280;37739;50.350;7.578;2024-01-07T08:19:43;99861.25;;;2.31;100.00
47883;BME280;37739;50.350;7.578;2024-01-07T08:22:11;99868.69;;;2.42;100.00
47883;BME280;37739;50.350;7.578;2024-01-07T08:24:37;99874.63;;;2.42;100.00
47883;BME280;37739;50.350;7.578;2024-01-07T08:27:05;99873.09;;;2.44;100.00
47883;BME280;37739;50.350;7.578;2024-01-07T08:29:38;99874.56;;;2.41;100.00
47883;BME280;37739;50.350;7.578;2024-01-07T08:32:03;99884.91;;;2.32;100.00
47883;BME280;37739;50.350;7.578;2024-01-07T08:34:29;99884.16;;;2.33;100.00
47883;BME280;37739;50.350;7.578;2024-01-07T08:36:58;99877.84;;;2.40;100.00
47883;BME280;37739;50.350;7.578;2024-01-07T08:39:24;99881.91;;;2.38;100.00
47883;BME280;37739;50.350;7.578;2024-01-07T08:41:51;99877.72;;;2.38;100.00
47883;BME280;37739;50.350;7.578;2024-01-07T08:44:16;99880.06;;;2.35;100.00
47883;BME280;37739;50.350;7.578;2024-01-07T08:46:41;99883.13;;;2.31;100.00
47883;BME280;37739;50.350;7.578;2024-01-07T08:49:07;99886.31;;;2.28;100.00
47883;BME280;37739;50.350;7.578;2024-01-07T08:51:34;99888.72;;;2.39;100.00
47883;BME280;37739;50.350;7.578;2024-01-07T08:53:59;99893.69;;;2.49;100.00
47883;BME280;37739;50.350;7.578;2024-01-07T08:56:25;99887.38;;;2.55;100.00
47883;BME280;37739;50.350;7.578;2024-01-07T08:58:50;99895.34;;;2.48;100.00
47883;BME280;37739;50.350;7.578;2024-01-07T09:01:17;99898.00;;;2.38;100.00
47883;BME280;37739;50.350;7.578;2024-01-07T09:03:42;99904.72;;;2.38;100.00
47883;BME280;37739;50.350;7.578;2024-01-07T09:06:12;99904.38;;;2.45;100.00
47883;BME280;37739;50.350;7.578;2024-01-07T09:08:38;99912.41;;;2.39;100.00
47883;BME280;37739;50.350;7.578;2024-01-07T09:11:08;99900.19;;;2.45;100.00
47883;BME280;37739;50.350;7.578;2024-01-07T09:13:36;99906.91;;;2.57;100.00
47883;BME280;37739;50.350;7.578;2024-01-07T09:16:04;99915.25;;;2.55;100.00
47883;BME280;37739;50.350;7.578;2024-01-07T09:18:29;99918.47;;;2.53;100.00
47883;BME280;37739;50.350;7.578;2024-01-07T09:20:57;99925.50;;;2.57;100.00
47883;BME280;37739;50.350;7.578;2024-01-07T09:23:22;99923.06;;;2.59;100.00
47883;BME280;37739;50.350;7.578;2024-01-07T09:25:48;99929.69;;;2.57;100.00
47883;BME280;37739;50.350;7.578;2024-01-07T09:28:16;99926.38;;;2.58;100.00
47883;BME280;37739;50.350;7.578;2024-01-07T09:30:46;99931.69;;;2.49;100.00
47883;BME280;37739;50.350;7.578;2024-01-07T09:33:12;99938.47;;;2.50;100.00
47883;BME280;37739;50.350;7.578;2024-01-07T09:35:37;99954.34;;;2.47;100.00
47883;BME280;37739;50.350;7.578;2024-01-07T09:38:05;99950.03;;;2.46;100.00
47883;BME280;37739;50.350;7.578;2024-01-07T09:40:32;99951.16;;;2.50;100.00
47883;BME280;37739;50.350;7.578;2024-01-07T09:43:00;99945.22;;;2.49;100.00
47883;BME280;37739;50.350;7.578;2024-01-07T09:45:26;99945.53;;;2.42;100.00
47883;BME280;37739;50.350;7.578;2024-01-07T09:47:51;99949.06;;;2.44;100.00
47883;BME280;37739;50.350;7.578;2024-01-07T09:50:19;99957.88;;;2.38;100.00
47883;BME280;37739;50.350;7.578;2024-01-07T09:52:45;99960.66;;;2.41;100.00
47883;BME280;37739;50.350;7.578;2024-01-07T09:55:26;99962.28;;;2.52;100.00
47883;BME280;37739;50.350;7.578;2024-01-07T09:57:55;99966.47;;;2.51;100.00
47883;BME280;37739;50.350;7.578;2024-01-07T10:00:21;99970.19;;;2.68;100.00
47883;BME280;37739;50.350;7.578;2024-01-07T10:02:46;99971.31;;;2.72;100.00
47883;BME280;37739;50.350;7.578;2024-01-07T10:05:12;99970.31;;;2.70;100.00
47883;BME280;37739;50.350;7.578;2024-01-07T10:07:39;99970.44;;;2.71;100.00
47883;BME280;37739;50.350;7.578;2024-01-07T10:10:20;99968.97;;;2.75;100.00
47883;BME280;37739;50.350;7.578;2024-01-07T10:12:46;99976.56;;;2.75;100.00
47883;BME280;37739;50.350;7.578;2024-01-07T10:15:14;99975.13;;;2.79;100.00
47883;BME280;37739;50.350;7.578;2024-01-07T10:17:42;99965.44;;;2.73;100.00
47883;BME280;37739;50.350;7.578;2024-01-07T10:20:10;99974.03;;;2.63;100.00
47883;BME280;37739;50.350;7.578;2024-01-07T10:22:38;99969.31;;;2.68;100.00
47883;BME280;37739;50.350;7.578;2024-01-07T10:25:05;99967.75;;;2.82;100.00
47883;BME280;37739;50.350;7.578;2024-01-07T10:27:33;99965.53;;;2.86;100.00
47883;BME280;37739;50.350;7.578;2024-01-07T10:29:59;99967.09;;;2.84;100.00
47883;BME280;37739;50.350;7.578;2024-01-07T10:32:27;99971.63;;;2.65;100.00
47883;BME280;37739;50.350;7.578;2024-01-07T10:34:59;99965.25;;;2.70;100.00
47883;BME280;37739;50.350;7.578;2024-01-07T10:37:27;99974.59;;;2.71;100.00
47883;BME280;37739;50.350;7.578;2024-01-07T10:39:53;99969.75;;;2.74;100.00
47883;BME280;37739;50.350;7.578;2024-01-07T10:42:21;99973.28;;;2.76;100.00
47883;BME280;37739;50.350;7.578;2024-01-07T10:44:47;99977.78;;;2.80;100.00
47883;BME280;37739;50.350;7.578;2024-01-07T10:47:13;99975.69;;;2.74;100.00
47883;BME280;37739;50.350;7.578;2024-01-07T10:49:40;99981.75;;;2.65;100.00
47883;BME280;37739;50.350;7.578;2024-01-07T10:52:09;99978.78;;;2.70;100.00
47883;BME280;37739;50.350;7.578;2024-01-07T10:54:38;99980.44;;;2.70;100.00
47883;BME280;37739;50.350;7.578;2024-01-07T10:57:12;99982.97;;;2.82;100.00
47883;BME280;37739;50.350;7.578;2024-01-07T10:59:40;99986.47;;;2.84;100.00
47883;BME280;37739;50.350;7.578;2024-01-07T11:02:10;99987.56;;;2.99;100.00
47883;BME280;37739;50.350;7.578;2024-01-07T11:04:43;99997.03;;;2.90;100.00
47883;BME280;37739;50.350;7.578;2024-01-07T11:07:33;99995.38;;;3.02;100.00
47883;BME280;37739;50.350;7.578;2024-01-07T11:10:13;99992.19;;;3.05;100.00
47883;BME280;37739;50.350;7.578;2024-01-07T11:12:39;99997.84;;;2.89;100.00
47883;BME280;37739;50.350;7.578;2024-01-07T11:15:05;99991.66;;;2.85;100.00
47883;BME280;37739;50.350;7.578;2024-01-07T11:20:04;99995.94;;;2.86;100.00
47883;BME280;37739;50.350;7.578;2024-01-07T11:22:32;99999.59;;;2.66;100.00
47883;BME280;37739;50.350;7.578;2024-01-07T11:25:01;100001.72;;;2.60;99.84
47883;BME280;37739;50.350;7.578;2024-01-07T11:27:33;99998.28;;;2.60;100.00
47883;BME280;37739;50.350;7.578;2024-01-07T11:30:08;99996.84;;;2.63;100.00
47883;BME280;37739;50.350;7.578;2024-01-07T11:32:46;100001.59;;;2.70;99.77
47883;BME280;37739;50.350;7.578;2024-01-07T11:35:14;100008.50;;;2.73;98.88
47883;BME280;37739;50.350;7.578;2024-01-07T11:37:42;100001.03;;;2.63;98.51
47883;BME280;37739;50.350;7.578;2024-01-07T11:40:16;100005.66;;;2.68;99.12
47883;BME280;37739;50.350;7.578;2024-01-07T11:42:44;100007.31;;;2.80;99.05
47883;BME280;37739;50.350;7.578;2024-01-07T11:45:10;100004.88;;;2.69;98.25
47883;BME280;37739;50.350;7.578;2024-01-07T11:47:35;100003.00;;;2.79;98.50
47883;BME280;37739;50.350;7.578;2024-01-07T11:50:01;100008.84;;;2.78;98.22
47883;BME280;37739;50.350;7.578;2024-01-07T11:52:26;100012.59;;;2.71;97.94
47883;BME280;37739;50.350;7.578;2024-01-07T11:54:53;100008.63;;;2.74;97.63
47883;BME280;37739;50.350;7.578;2024-01-07T11:57:18;100001.00;;;2.86;98.25
47883;BME280;37739;50.350;7.578;2024-01-07T11:59:46;100002.97;;;2.90;97.62
47883;BME280;37739;50.350;7.578;2024-01-07T12:02:14;100001.97;;;3.00;97.12
47883;BME280;37739;50.350;7.578;2024-01-07T12:04:40;100010.03;;;3.06;97.42
47883;BME280;37739;50.350;7.578;2024-01-07T12:07:08;100001.75;;;3.09;96.67
47883;BME280;37739;50.350;7.578;2024-01-07T12:09:38;100007.16;;;3.02;96.63
47883;BME280;37739;50.350;7.578;2024-01-07T12:12:03;100002.97;;;2.90;96.03
47883;BME280;37739;50.350;7.578;2024-01-07T12:14:29;100005.06;;;2.96;96.99
47883;BME280;37739;50.350;7.578;2024-01-07T12:16:56;100006.41;;;2.91;97.81
47883;BME280;37739;50.350;7.578;2024-01-07T12:19:24;100012.38;;;2.91;97.54
47883;BME280;37739;50.350;7.578;2024-01-07T12:21:51;100011.38;;;2.89;98.40
47883;BME280;37739;50.350;7.578;2024-01-07T12:24:30;100013.81;;;2.76;95.82
47883;BME280;37739;50.350;7.578;2024-01-07T12:26:55;100013.69;;;2.86;96.21
47883;BME280;37739;50.350;7.578;2024-01-07T12:29:20;100015.22;;;2.84;95.68
47883;BME280;37739;50.350;7.578;2024-01-07T12:31:51;100021.63;;;2.79;93.95
47883;BME280;37739;50.350;7.578;2024-01-07T12:34:16;100012.81;;;2.74;94.87
47883;BME280;37739;50.350;7.578;2024-01-07T12:36:44;100020.19;;;2.71;94.91
47883;BME280;37739;50.350;7.578;2024-01-07T12:39:11;100023.72;;;2.73;93.66
47883;BME280;37739;50.350;7.578;2024-01-07T12:41:38;100019.88;;;2.66;92.74
47883;BME280;37739;50.350;7.578;2024-01-07T12:44:04;100018.75;;;2.74;92.78
47883;BME280;37739;50.350;7.578;2024-01-07T12:46:31;100022.84;;;2.72;93.19
47883;BME280;37739;50.350;7.578;2024-01-07T12:48:57;100020.97;;;2.58;92.58
47883;BME280;37739;50.350;7.578;2024-01-07T12:51:22;100026.59;;;2.66;92.84
47883;BME280;37739;50.350;7.578;2024-01-07T12:53:47;100021.72;;;2.69;93.42
47883;BME280;37739;50.350;7.578;2024-01-07T12:56:15;100021.72;;;2.69;91.37
47883;BME280;37739;50.350;7.578;2024-01-07T12:58:43;100027.59;;;2.68;91.96
47883;BME280;37739;50.350;7.578;2024-01-07T13:01:08;100028.69;;;2.71;91.75
47883;BME280;37739;50.350;7.578;2024-01-07T13:03:36;100026.03;;;2.70;91.52